0 Fri Sep 18 02:56:01 EDT 2020 receiving avg 0 msg/sec near East Meadow, NY Cruising Descending Ascending

VerticaOrdered by callsign. Updates every 5 minutes for flights with complete track data in the last hour. Comments mainly cover KEWR, KJFK, KLGA; operations at other airports may appear with or without comment.

hex_ident airline callsign first_seen first_lat first_lon first_altitude last_seen last_lat last_lon last_altitude comments
A526ED Air Transport International ATN3429 2020-09-18 02:01:11.3 41.05209 -76.7116 37000 2020-09-18 02:28:10.357 40.62643 -73.76843 300 Arrived KJFK
A939E8 Delta Air Lines DAL8838 2020-09-18 02:06:51.53 41.73628 -71.13398 28750 2020-09-18 02:36:22.166 40.6236 -73.76202 425 Arrived KJFK
AABFF4 Federal Express FDX1021 2020-09-18 01:57:14.188 40.80294 -74.92301 9750 2020-09-18 02:06:52.417 40.6003 -74.22333 1675  
ADE96E Federal Express FDX1029 2020-09-18 02:02:20.113 39.07361 -76.47344 34975 2020-09-18 02:26:10.402 40.599 -74.22413 1750  
3C7069 Lufthansa Cargo GEC8161 2020-09-18 02:06:10.558 40.64834 -73.8167 375 2020-09-18 02:28:45.13 42.89708 -71.53211 34975 Departed KJFK
A8E9FC GTA Air GTX247 2020-09-18 02:05:06.945 40.32313 -74.52139 7000 2020-09-18 02:29:18.588 40.73456 -73.42157 100  
A52AD2 Quest Diagnostics LBQ790 2020-09-18 02:01:02.025 40.88548 -74.05041 1725 2020-09-18 02:12:54.217 40.70462 -74.77161 5975 Departed KTEB
A6CF20 LAN Cargo LCO1508 2020-09-18 02:22:26.982 38.95404 -74.32579 33025 2020-09-18 02:46:34.782 41.86336 -71.77999 33025  
AAC5EC Sun Country Airlines SCX3023 2020-09-18 02:22:52.069 40.64816 -73.81633 375 2020-09-18 02:37:02.091 40.09279 -75.38974 30925 Departed KJFK

VerticaAircraft and message statistics by day, by hour, by minute. Updates every 5 minutes. The most recent entry may show partial data for the current time period.

day aircraft_day messages_day
2020-09-11 2343 26693548
2020-09-12 2289 25570305
2020-09-13 2304 28014519
2020-09-14 2158 26723594
2020-09-15 2145 26207015
2020-09-16 2233 27545369
2020-09-17 2306 28952574
2020-09-18 48 284252
day hour aircraft_hour messages_hour
2020-09-16 2020-09-16 22:00:00 48 58166
2020-09-16 2020-09-16 23:00:00 95 490958
2020-09-17 2020-09-17 00:00:00 33 105495
2020-09-17 2020-09-17 01:00:00 31 186024
2020-09-17 2020-09-17 02:00:00 25 101280
2020-09-17 2020-09-17 03:00:00 38 141867
2020-09-17 2020-09-17 04:00:00 49 289561
2020-09-17 2020-09-17 05:00:00 53 316707
2020-09-17 2020-09-17 06:00:00 123 781396
2020-09-17 2020-09-17 07:00:00 217 1125889
2020-09-17 2020-09-17 08:00:00 307 1720466
2020-09-17 2020-09-17 09:00:00 362 1954475
2020-09-17 2020-09-17 10:00:00 365 1830711
2020-09-17 2020-09-17 11:00:00 405 1846831
2020-09-17 2020-09-17 12:00:00 367 1885652
2020-09-17 2020-09-17 13:00:00 340 1733496
2020-09-17 2020-09-17 14:00:00 349 1742320
2020-09-17 2020-09-17 15:00:00 437 2182247
2020-09-17 2020-09-17 16:00:00 397 2057499
2020-09-17 2020-09-17 17:00:00 369 1944095
2020-09-17 2020-09-17 18:00:00 371 1944529
2020-09-17 2020-09-17 19:00:00 291 1663569
2020-09-17 2020-09-17 20:00:00 198 1047441
2020-09-17 2020-09-17 21:00:00 179 1158102
2020-09-17 2020-09-17 22:00:00 152 826692
2020-09-17 2020-09-17 23:00:00 90 366230
2020-09-18 2020-09-18 00:00:00 27 110221
2020-09-18 2020-09-18 01:00:00 20 94076
2020-09-18 2020-09-18 02:00:00 14 79955
today_minute aircraft_minute messages_minute avg_msg_second
2020-09-18 02:26:00 8 1799 29
2020-09-18 02:27:00 7 2463 41
2020-09-18 02:28:00 8 2412 40
2020-09-18 02:29:00 6 1688 28
2020-09-18 02:30:00 5 1686 28
2020-09-18 02:31:00 4 1692 28
2020-09-18 02:32:00 4 1413 23
2020-09-18 02:33:00 4 1333 22
2020-09-18 02:34:00 4 1793 29
2020-09-18 02:35:00 4 1391 23
2020-09-18 02:36:00 5 1027 17
2020-09-18 02:37:00 3 952 15
2020-09-18 02:38:00 2 938 15
2020-09-18 02:39:00 2 896 14
2020-09-18 02:40:00 2 907 15
2020-09-18 02:41:00 1 821 13
2020-09-18 02:42:00 2 649 10
2020-09-18 02:43:00 2 780 13
2020-09-18 02:44:00 2 535 8
2020-09-18 02:45:00 2 384 6
2020-09-18 02:46:00 2 273 4

METAR (METeorological Aerodrome Report) weather reports are updated hourly. Map sourced from NWS; click for original.

location Time weather Temp Dew Point RH% Wind Wind Chill
Farmingdale - Republic Airport NY Last Updated on Sep 18 2020 1:53 am EDT Overcast 70.0 F (21.1 C) 64.0 F (17.8 C) 82 South at 6.9 MPH (6 KT)  
Islip Long Island Mac Arthur Airport NY Last Updated on Sep 18 2020 1:56 am EDT Light Rain 66.0 F (18.9 C) 66.0 F (18.9 C) 100 South at 3.5 MPH (3 KT)  
New York Kennedy International Airport NY Last Updated on Sep 18 2020 1:51 am EDT Overcast 69.0 F (20.6 C) 66.9 F (19.4 C) 93 East at 4.6 MPH (4 KT)  
New York La Guardia Airport NY Last Updated on Sep 18 2020 1:51 am EDT Overcast 69.0 F (20.6 C) 60.1 F (15.6 C) 73 North at 8.1 MPH (7 KT)  
Newark Newark International Airport NJ Last Updated on Sep 18 2020 1:51 am EDT Overcast 67.0 F (19.4 C) 61.0 F (16.1 C) 81 North at 8.1 MPH (7 KT)  
Teterboro Teterboro Airport NJ Last Updated on Sep 18 2020 1:51 am EDT Overcast 65.0 F (18.3 C) 59.0 F (15.0 C) 81 North at 9.2 MPH (8 KT)  
White Plains - Westchester County Airport NY Last Updated on Sep 18 2020 1:56 am EDT Partly Cloudy 62.0 F (16.7 C) 57.9 F (14.4 C) 86 North at 6.9 MPH (6 KT) 62 F (17 C)
NWS Radar